weather.gov     
National Weather Service

Terminal Aerodrome Forecast
NWS Homepage
This page is being discontinued on March 12, 2014.
The same data is available at this site. Please update your bookmarks.
Thank you, and we apologize for the inconvenience.
Please send an email to SR-SRH.Webmaster@noaa.gov with any concerns.


Current Version
Previous Version:    01  02  03  04  05  06  07  08  09  10  11  12  13  14  15  16  17  18  19  20  21  22  23  24  25  26  27  28  29  30  
   31  32  33  34  35  36  37  38  39  
[Printable]
451
FTAK31 PAJN 291400 AAA
TAFAKT
TAF AMD
PAKT 291402Z 2914/3012 14010KT 4SM -RA BR SCT006 BKN010 OVC015
      TEMPO 2914/2916 2SM -RA BR BKN008 OVC015
     FM291800 14008KT 4SM -RA BR SCT010 BKN015 OVC025
     FM292200 14008KT P6SM -SHRA SCT025 OVC050
     FM300600 14006KT P6SM VCSH BKN050
      AMD LTD TO CLD VIS AND WIND 2912/2915=


U.S. Dept. of Commerce
NOAA National Weather Service
1325 East West Highway
Silver Spring, MD 20910
E-mail: w-nws.webmaster@noaa.gov
Page last modified: May 16, 2007
NATIONAL WEATHER SERVICE: for Safety, for Work, for Fun - FOR LIFE